createdAt,value
2022-08-07T00:02:37.221Z,99.90
2022-08-07T00:05:05.704Z,99.90
2022-08-07T00:07:41.202Z,99.90
2022-08-07T00:10:30.030Z,99.90
2022-08-07T00:13:09.583Z,99.90
2022-08-07T00:15:46.829Z,99.90
2022-08-07T00:18:24.021Z,99.90
2022-08-07T00:20:57.563Z,99.90
2022-08-07T00:23:30.684Z,99.90
2022-08-07T00:26:06.857Z,99.90
2022-08-07T00:28:46.030Z,99.90
2022-08-07T00:31:26.053Z,99.90
2022-08-07T00:34:08.521Z,99.90
2022-08-07T00:36:43.078Z,99.90
2022-08-07T00:39:16.741Z,99.90
2022-08-07T00:41:53.763Z,99.90
2022-08-07T00:44:30.151Z,99.90
2022-08-07T00:46:58.401Z,99.90
2022-08-07T00:50:21.169Z,99.90
2022-08-07T00:52:20.009Z,99.90
2022-08-07T00:54:53.784Z,99.90
2022-08-07T00:57:25.178Z,99.90
2022-08-07T00:59:55.055Z,99.90
2022-08-07T01:02:28.656Z,99.90
2022-08-07T01:04:59.999Z,99.90
2022-08-07T01:07:31.358Z,99.90
2022-08-07T01:10:07.210Z,99.90
2022-08-07T01:12:53.539Z,99.90
2022-08-07T01:15:35.975Z,99.90
2022-08-07T01:18:17.011Z,99.90
2022-08-07T01:20:57.524Z,99.90
2022-08-07T01:23:38.593Z,99.90
2022-08-07T01:26:12.027Z,99.90
2022-08-07T01:28:46.262Z,99.90
2022-08-07T01:31:18.082Z,99.90
2022-08-07T01:33:55.017Z,99.90
2022-08-07T01:36:33.365Z,99.90
2022-08-07T01:39:09.781Z,99.90
2022-08-07T01:41:40.783Z,99.90
2022-08-07T01:44:29.077Z,99.90
2022-08-07T01:46:58.375Z,99.90
2022-08-07T01:49:31.860Z,99.90
2022-08-07T01:52:05.044Z,99.90
2022-08-07T01:54:41.118Z,99.90
2022-08-07T01:57:24.559Z,99.90
2022-08-07T02:00:13.226Z,99.90
2022-08-07T02:03:18.231Z,99.90
2022-08-07T02:05:47.824Z,99.90
2022-08-07T02:08:19.398Z,99.90
2022-08-07T02:10:58.106Z,99.90
2022-08-07T02:13:57.930Z,99.90
2022-08-07T02:16:28.379Z,99.90
2022-08-07T02:19:05.540Z,99.90
2022-08-07T02:22:14.369Z,99.90
2022-08-07T02:24:48.572Z,99.90
2022-08-07T02:27:21.570Z,99.90
2022-08-07T02:29:54.751Z,99.90
2022-08-07T02:32:26.992Z,99.90
2022-08-07T02:35:00.884Z,99.90
2022-08-07T02:37:34.131Z,99.90
2022-08-07T02:40:29.770Z,99.90
2022-08-07T02:42:59.866Z,99.90
2022-08-07T02:45:58.938Z,99.90
2022-08-07T02:48:18.229Z,99.90
2022-08-07T02:50:52.879Z,99.90
2022-08-07T02:53:27.393Z,99.90
2022-08-07T02:56:03.977Z,99.90
2022-08-07T02:58:39.809Z,99.90
2022-08-07T03:01:19.064Z,99.90
2022-08-07T03:04:07.557Z,99.90
2022-08-07T03:06:41.541Z,99.90
2022-08-07T03:09:11.600Z,99.90
2022-08-07T03:11:51.751Z,99.90
2022-08-07T03:14:28.311Z,99.90
2022-08-07T03:16:57.521Z,99.90
2022-08-07T03:19:29.074Z,99.90
2022-08-07T03:22:06.909Z,99.90
2022-08-07T03:24:36.714Z,99.90
2022-08-07T03:27:09.038Z,99.90
2022-08-07T03:29:44.656Z,99.90
2022-08-07T03:32:21.861Z,99.90
2022-08-07T03:35:16.897Z,99.90
2022-08-07T03:37:46.276Z,99.90
2022-08-07T03:40:23.851Z,99.90
2022-08-07T03:42:59.914Z,99.90
2022-08-07T03:45:31.583Z,99.90
2022-08-07T03:48:00.667Z,99.90
2022-08-07T03:50:30.178Z,99.90
2022-08-07T03:53:00.003Z,99.90
2022-08-07T03:55:52.772Z,99.90
2022-08-07T03:59:07.272Z,99.90
2022-08-07T04:01:11.703Z,99.90
2022-08-07T04:03:53.561Z,99.90
2022-08-07T04:06:37.615Z,99.90
2022-08-07T04:09:08.480Z,99.90
2022-08-07T04:12:26.679Z,99.90
2022-08-07T04:14:43.486Z,99.90
2022-08-07T04:17:20.910Z,99.90
2022-08-07T04:19:54.392Z,99.90
2022-08-07T04:22:27.573Z,99.90
2022-08-07T04:25:01.684Z,99.90
2022-08-07T04:27:35.604Z,99.90
2022-08-07T04:30:21.306Z,99.90
2022-08-07T04:33:07.364Z,99.90
2022-08-07T04:35:36.054Z,99.90
2022-08-07T04:40:51.607Z,99.90
2022-08-07T04:44:10.470Z,99.90
2022-08-07T04:46:20.109Z,99.90
2022-08-07T04:49:17.517Z,99.90
2022-08-07T04:51:54.791Z,99.90
2022-08-07T04:54:33.532Z,99.90
2022-08-07T04:58:10.887Z,99.90
2022-08-07T05:00:11.889Z,99.90
2022-08-07T05:02:54.806Z,99.90
2022-08-07T05:05:54.020Z,99.90
2022-08-07T05:08:59.519Z,99.90
2022-08-07T05:11:19.487Z,99.90
2022-08-07T05:14:53.975Z,99.90
2022-08-07T05:16:52.987Z,99.90
2022-08-07T05:19:32.643Z,99.90
2022-08-07T05:22:19.036Z,99.90
2022-08-07T05:24:57.312Z,99.90
2022-08-07T05:28:16.408Z,99.90
2022-08-07T05:30:29.961Z,99.90
2022-08-07T05:33:02.557Z,99.90
2022-08-07T05:35:42.061Z,99.90
2022-08-07T05:38:13.288Z,99.90
2022-08-07T05:41:12.366Z,99.90
2022-08-07T05:44:08.155Z,99.90
2022-08-07T05:46:37.296Z,99.90
2022-08-07T05:49:12.126Z,99.90
2022-08-07T05:51:46.583Z,99.90
2022-08-07T05:54:31.233Z,99.90
2022-08-07T05:57:08.095Z,99.90
2022-08-07T05:59:55.830Z,99.90
2022-08-07T06:02:29.685Z,99.90
2022-08-07T06:05:03.961Z,99.90
2022-08-07T06:08:09.214Z,99.90
2022-08-07T06:10:25.138Z,99.90
2022-08-07T06:12:53.579Z,99.90
2022-08-07T06:15:39.068Z,99.90
2022-08-07T06:18:13.827Z,99.90
2022-08-07T06:20:50.276Z,99.90
2022-08-07T06:24:38.060Z,99.90
2022-08-07T06:26:27.573Z,99.90
2022-08-07T06:28:59.006Z,99.90
2022-08-07T06:31:38.416Z,99.90
2022-08-07T06:34:15.401Z,99.90
2022-08-07T06:36:48.152Z,99.90
2022-08-07T06:40:17.714Z,99.90
2022-08-07T06:42:17.593Z,99.90
2022-08-07T06:44:51.161Z,99.90
2022-08-07T06:47:21.043Z,99.90
2022-08-07T06:49:50.758Z,99.90
2022-08-07T06:52:31.287Z,99.90
2022-08-07T06:55:32.698Z,99.90
2022-08-07T06:58:00.076Z,99.90
2022-08-07T07:00:32.163Z,99.90
2022-08-07T07:03:10.954Z,99.90
2022-08-07T07:06:03.981Z,99.90
2022-08-07T07:08:33.314Z,99.90
2022-08-07T07:11:13.851Z,99.90
2022-08-07T07:13:57.790Z,99.90
2022-08-07T07:16:38.945Z,99.90
2022-08-07T07:19:55.852Z,99.90
2022-08-07T07:22:33.926Z,99.90
2022-08-07T07:25:02.926Z,99.90
2022-08-07T07:27:56.266Z,99.90
2022-08-07T07:30:39.684Z,99.90
2022-08-07T07:33:12.133Z,99.90
2022-08-07T07:36:05.001Z,99.90
2022-08-07T07:38:34.941Z,99.90
2022-08-07T07:41:08.654Z,99.90
2022-08-07T07:43:47.829Z,99.90
2022-08-07T07:46:36.834Z,99.90
2022-08-07T07:50:33.820Z,99.90
2022-08-07T07:52:16.121Z,99.90
2022-08-07T07:54:50.541Z,99.90
2022-08-07T07:57:52.082Z,99.90
2022-08-07T08:00:21.063Z,99.90
2022-08-07T08:03:07.853Z,99.90
2022-08-07T08:05:54.187Z,99.90
2022-08-07T08:08:34.654Z,99.90
2022-08-07T08:11:08.681Z,99.90
2022-08-07T08:13:53.909Z,99.90
2022-08-07T08:16:29.651Z,99.90
2022-08-07T08:19:09.867Z,99.90
2022-08-07T08:22:10.604Z,99.90
2022-08-07T08:25:18.191Z,99.90
2022-08-07T08:27:56.467Z,99.90
2022-08-07T08:30:57.617Z,99.90
2022-08-07T08:33:33.222Z,99.90
2022-08-07T08:36:04.346Z,99.90
2022-08-07T08:38:39.272Z,99.90
2022-08-07T08:41:15.882Z,99.90
2022-08-07T08:43:58.990Z,99.60
2022-08-07T08:46:38.647Z,99.90
2022-08-07T08:49:14.683Z,99.90
2022-08-07T08:52:14.525Z,98.20
2022-08-07T08:54:50.658Z,95.00
2022-08-07T08:57:33.979Z,95.90
2022-08-07T09:00:06.268Z,98.40
2022-08-07T09:02:42.305Z,95.90
2022-08-07T09:05:36.664Z,96.20
2022-08-07T09:08:30.421Z,95.70
2022-08-07T09:11:13.964Z,97.80
2022-08-07T09:14:08.705Z,97.30
2022-08-07T09:16:49.711Z,97.90
2022-08-07T09:19:50.626Z,94.40
2022-08-07T09:24:33.253Z,96.20
2022-08-07T09:26:58.636Z,97.40
2022-08-07T09:30:06.614Z,97.80
2022-08-07T09:33:16.193Z,95.00
2022-08-07T09:36:05.149Z,93.40
2022-08-07T09:38:53.458Z,95.50
2022-08-07T09:41:36.273Z,96.10
2022-08-07T09:44:32.914Z,95.30
2022-08-07T09:47:57.844Z,95.30
2022-08-07T09:50:22.208Z,95.70
2022-08-07T09:53:01.219Z,95.50
2022-08-07T09:56:02.760Z,95.40
2022-08-07T09:58:58.842Z,94.50
2022-08-07T10:01:51.671Z,94.30
2022-08-07T10:04:53.445Z,93.40
2022-08-07T10:07:53.586Z,93.40
2022-08-07T10:11:07.721Z,94.10
2022-08-07T10:14:00.337Z,93.80
2022-08-07T10:17:03.979Z,93.90
2022-08-07T10:19:55.634Z,94.20
2022-08-07T10:22:39.311Z,94.20
2022-08-07T10:25:22.905Z,95.10
2022-08-07T10:31:05.873Z,93.90
2022-08-07T10:34:05.973Z,94.70
2022-08-07T10:36:52.476Z,93.90
2022-08-07T10:39:25.714Z,94.10
2022-08-07T10:42:31.243Z,94.00
2022-08-07T10:45:45.013Z,94.40
2022-08-07T10:48:25.224Z,94.90
2022-08-07T10:51:16.906Z,94.80
2022-08-07T10:54:06.810Z,94.90
2022-08-07T10:56:47.831Z,94.00
2022-08-07T10:59:30.530Z,94.70
2022-08-07T11:02:32.909Z,94.30
2022-08-07T11:05:12.665Z,93.80
2022-08-07T11:07:59.645Z,94.70
2022-08-07T11:10:40.329Z,93.50
2022-08-07T11:13:42.383Z,92.90
2022-08-07T11:16:09.447Z,93.30
2022-08-07T11:18:43.874Z,93.40
2022-08-07T11:21:33.595Z,93.40
2022-08-07T11:24:20.548Z,93.10
2022-08-07T11:27:01.229Z,92.50
2022-08-07T11:29:43.030Z,92.90
2022-08-07T11:32:25.726Z,93.20
2022-08-07T11:34:58.476Z,94.20
2022-08-07T11:38:08.962Z,93.20
2022-08-07T11:40:49.943Z,93.60
2022-08-07T11:43:29.789Z,93.30
2022-08-07T11:46:23.699Z,92.80
2022-08-07T11:49:50.389Z,92.80
2022-08-07T11:52:19.298Z,93.10
2022-08-07T11:55:19.041Z,93.00
2022-08-07T11:58:13.265Z,92.60
2022-08-07T12:01:02.114Z,92.30
2022-08-07T12:03:58.476Z,92.30
2022-08-07T12:06:51.484Z,92.40
2022-08-07T12:09:31.586Z,92.40
2022-08-07T12:12:11.674Z,92.40
2022-08-07T12:14:51.463Z,91.90
2022-08-07T12:17:33.909Z,91.60
2022-08-07T12:20:14.031Z,91.80
2022-08-07T12:23:14.613Z,91.30
2022-08-07T12:26:23.573Z,91.40
2022-08-07T12:29:02.575Z,91.10
2022-08-07T12:32:02.309Z,90.60
2022-08-07T12:34:32.757Z,90.70
2022-08-07T12:37:08.655Z,90.30
2022-08-07T12:39:51.303Z,90.60
2022-08-07T12:42:27.707Z,89.40
2022-08-07T12:45:04.442Z,88.50
2022-08-07T12:47:44.050Z,87.60
2022-08-07T12:50:38.552Z,86.90
2022-08-07T12:53:17.878Z,88.90
2022-08-07T12:56:02.341Z,87.50
2022-08-07T12:58:39.274Z,89.00
2022-08-07T13:01:19.489Z,87.40
2022-08-07T13:04:04.858Z,88.80
2022-08-07T13:07:02.511Z,88.20
2022-08-07T13:10:28.852Z,87.10
2022-08-07T13:12:52.739Z,86.40
2022-08-07T13:15:32.059Z,87.80
2022-08-07T13:18:26.235Z,85.80
2022-08-07T13:21:02.919Z,84.80
2022-08-07T13:24:01.245Z,86.00
2022-08-07T13:26:36.587Z,84.30
2022-08-07T13:29:15.374Z,84.20
2022-08-07T13:31:57.561Z,83.10
2022-08-07T13:34:48.504Z,82.30
2022-08-07T13:37:29.547Z,81.50
2022-08-07T13:40:36.404Z,82.30
2022-08-07T13:43:05.742Z,82.60
2022-08-07T13:46:10.949Z,80.90
2022-08-07T13:48:35.259Z,84.00
2022-08-07T13:51:28.534Z,82.20
2022-08-07T13:54:03.378Z,80.80
2022-08-07T13:56:40.730Z,79.70
2022-08-07T13:59:25.561Z,80.20
2022-08-07T14:02:04.435Z,80.50
2022-08-07T14:04:49.028Z,79.90
2022-08-07T14:07:23.720Z,79.80
2022-08-07T14:10:01.229Z,79.90
2022-08-07T14:12:41.973Z,78.80
2022-08-07T14:15:31.622Z,78.00
2022-08-07T14:18:24.305Z,77.90
2022-08-07T14:21:08.190Z,77.70
2022-08-07T14:23:59.019Z,77.90
2022-08-07T14:26:36.806Z,76.80
2022-08-07T14:30:06.157Z,76.60
2022-08-07T14:32:03.099Z,76.20
2022-08-07T14:34:33.975Z,77.50
2022-08-07T14:37:04.054Z,77.50
2022-08-07T14:40:16.664Z,76.30
2022-08-07T14:42:32.230Z,77.90
2022-08-07T14:45:21.257Z,80.70
2022-08-07T14:47:53.109Z,80.90
2022-08-07T14:50:31.604Z,78.50
2022-08-07T14:53:08.796Z,79.60
2022-08-07T14:55:55.920Z,82.10
2022-08-07T14:58:34.892Z,84.20
2022-08-07T15:01:21.491Z,84.20
2022-08-07T15:03:53.260Z,83.80
2022-08-07T15:06:26.117Z,84.40
2022-08-07T15:08:56.023Z,84.10
2022-08-07T15:14:25.411Z,84.00
2022-08-07T15:17:02.129Z,83.30
2022-08-07T15:25:23.593Z,83.60
2022-08-07T15:28:34.749Z,84.10
2022-08-07T15:31:04.660Z,84.10
2022-08-07T15:33:36.486Z,85.70
2022-08-07T15:36:08.683Z,87.60
2022-08-07T15:38:58.526Z,85.60
2022-08-07T15:42:46.418Z,85.50
2022-08-07T15:50:06.768Z,86.70
2022-08-07T15:52:38.925Z,87.20
2022-08-07T15:55:12.424Z,86.90
2022-08-07T15:57:48.815Z,87.60
2022-08-07T16:00:22.786Z,87.50
2022-08-07T16:03:21.915Z,87.40
2022-08-07T16:05:58.436Z,87.60
2022-08-07T16:08:37.734Z,86.70
2022-08-07T16:11:26.558Z,85.50
2022-08-07T16:14:10.505Z,86.80
2022-08-07T16:17:01.867Z,87.20
2022-08-07T16:20:03.798Z,87.90
2022-08-07T16:22:54.801Z,87.60
2022-08-07T16:25:55.473Z,87.10
2022-08-07T16:30:05.938Z,87.10
2022-08-07T16:31:50.773Z,88.00
2022-08-07T16:34:37.916Z,89.20
2022-08-07T16:38:04.656Z,89.40
2022-08-07T16:40:35.551Z,90.10
2022-08-07T16:43:13.709Z,89.20
2022-08-07T16:46:40.659Z,89.70
2022-08-07T16:50:20.025Z,89.70
2022-08-07T16:52:55.781Z,90.30
2022-08-07T16:55:43.696Z,90.40
2022-08-07T16:58:23.740Z,90.90
2022-08-07T17:01:10.310Z,91.00
2022-08-07T17:03:59.912Z,91.40
2022-08-07T17:06:58.077Z,92.20
2022-08-07T17:10:08.249Z,92.40
2022-08-07T17:12:44.661Z,93.30
2022-08-07T17:15:22.127Z,93.90
2022-08-07T17:18:18.462Z,93.80
2022-08-07T17:20:48.565Z,94.40
2022-08-07T17:23:53.123Z,94.60
2022-08-07T17:26:29.927Z,94.60
2022-08-07T17:30:12.515Z,94.50
2022-08-07T17:32:14.116Z,95.00
2022-08-07T17:35:49.810Z,95.60
2022-08-07T17:38:17.708Z,95.40
2022-08-07T17:41:12.362Z,96.00
2022-08-07T17:44:03.243Z,95.80
2022-08-07T17:46:41.337Z,95.50
2022-08-07T17:49:22.964Z,95.90
2022-08-07T17:52:01.235Z,96.00
2022-08-07T17:58:01.413Z,96.40
2022-08-07T18:00:34.450Z,96.40
2022-08-07T18:03:25.672Z,96.80
2022-08-07T18:06:02.468Z,97.30
2022-08-07T18:09:01.004Z,97.50
2022-08-07T18:12:12.003Z,97.90
2022-08-07T18:14:37.411Z,98.60
2022-08-07T18:18:47.400Z,99.30
2022-08-07T18:21:10.002Z,99.90
2022-08-07T18:23:41.936Z,99.90
2022-08-07T18:26:05.422Z,99.90
2022-08-07T18:29:05.259Z,99.90
2022-08-07T18:32:09.229Z,99.90
2022-08-07T18:35:01.187Z,99.90
2022-08-07T18:38:58.481Z,99.90
2022-08-07T18:40:53.600Z,99.90
2022-08-07T18:43:43.197Z,99.90
2022-08-07T18:46:27.393Z,99.90
2022-08-07T18:50:34.961Z,99.90
2022-08-07T18:52:33.895Z,99.90
2022-08-07T18:55:40.698Z,99.90
2022-08-07T18:58:05.804Z,99.90
2022-08-07T19:00:54.163Z,99.90
2022-08-07T19:03:38.116Z,99.90
2022-08-07T19:06:16.532Z,99.90
2022-08-07T19:09:00.646Z,99.90
2022-08-07T19:12:04.134Z,99.90
2022-08-07T19:14:51.264Z,99.90
2022-08-07T19:17:55.843Z,99.90
2022-08-07T19:20:29.771Z,99.90
2022-08-07T19:23:18.189Z,99.90
2022-08-07T19:26:23.327Z,99.90
2022-08-07T19:30:54.494Z,99.90
2022-08-07T19:32:03.517Z,99.90
2022-08-07T19:34:34.304Z,99.90
2022-08-07T19:37:10.239Z,99.90
2022-08-07T19:39:57.590Z,99.90
2022-08-07T19:42:40.080Z,99.90
2022-08-07T19:45:13.862Z,99.90
2022-08-07T19:48:03.078Z,99.90
2022-08-07T19:50:43.779Z,99.90
2022-08-07T19:54:31.487Z,99.90
2022-08-07T19:57:50.854Z,99.90
2022-08-07T19:59:02.622Z,99.90
2022-08-07T20:01:52.762Z,99.90
2022-08-07T20:04:32.177Z,99.90
2022-08-07T20:07:10.093Z,99.90
2022-08-07T20:10:34.100Z,99.90
2022-08-07T20:12:38.160Z,99.90
2022-08-07T20:15:18.708Z,99.90
2022-08-07T20:18:01.311Z,99.90
2022-08-07T20:20:33.810Z,99.90
2022-08-07T20:23:10.867Z,99.90
2022-08-07T20:25:55.154Z,99.90
2022-08-07T20:28:32.574Z,99.90
2022-08-07T20:31:01.711Z,99.90
2022-08-07T20:33:38.319Z,99.90
2022-08-07T20:36:09.801Z,99.90
2022-08-07T20:38:53.785Z,99.90
2022-08-07T20:41:34.081Z,99.90
2022-08-07T20:44:12.707Z,99.90
2022-08-07T20:46:44.897Z,99.90
2022-08-07T20:49:59.099Z,99.90
2022-08-07T20:52:16.539Z,99.90
2022-08-07T20:54:53.862Z,99.90
2022-08-07T20:57:25.796Z,99.90
2022-08-07T21:00:07.502Z,99.90
2022-08-07T21:03:01.995Z,99.90
2022-08-07T21:05:50.510Z,99.90
2022-08-07T21:08:32.328Z,99.90
2022-08-07T21:11:10.468Z,99.90
2022-08-07T21:13:43.852Z,99.90
2022-08-07T21:16:37.811Z,99.90
2022-08-07T21:19:32.475Z,99.90
2022-08-07T21:22:19.054Z,99.90
2022-08-07T21:25:11.737Z,99.90
2022-08-07T21:27:53.672Z,99.90
2022-08-07T21:30:30.119Z,99.90
2022-08-07T21:33:15.351Z,99.90
2022-08-07T21:36:04.979Z,99.90
2022-08-07T21:38:50.110Z,99.90
2022-08-07T21:41:25.621Z,99.90
2022-08-07T21:44:01.521Z,99.90
2022-08-07T21:46:41.745Z,99.90
2022-08-07T21:49:21.105Z,99.90
2022-08-07T21:52:11.438Z,99.90
2022-08-07T21:54:56.812Z,99.90
2022-08-07T21:57:44.850Z,99.90
2022-08-07T22:00:25.079Z,99.90
2022-08-07T22:03:05.530Z,99.90
2022-08-07T22:05:48.490Z,99.90
2022-08-07T22:08:21.664Z,99.90
2022-08-07T22:10:59.030Z,99.90
2022-08-07T22:13:51.209Z,99.90
2022-08-07T22:16:44.941Z,99.90
2022-08-07T22:19:23.771Z,99.90
2022-08-07T22:22:29.065Z,99.90
2022-08-07T22:25:07.564Z,99.90
2022-08-07T22:28:19.792Z,99.90
2022-08-07T22:30:40.789Z,99.90
2022-08-07T22:33:15.351Z,99.90
2022-08-07T22:35:52.358Z,99.90
2022-08-07T22:38:35.277Z,99.90
2022-08-07T22:41:10.848Z,99.90
2022-08-07T22:43:46.816Z,99.90
2022-08-07T22:47:01.954Z,99.90
2022-08-07T22:49:37.821Z,99.90
2022-08-07T22:52:37.388Z,99.90
2022-08-07T22:55:30.666Z,99.90
2022-08-07T22:58:09.367Z,99.90
2022-08-07T23:00:54.190Z,99.90
2022-08-07T23:03:57.625Z,99.90
2022-08-07T23:07:04.955Z,99.90
2022-08-07T23:10:36.304Z,99.90
2022-08-07T23:13:08.398Z,99.90
2022-08-07T23:16:05.639Z,99.90
2022-08-07T23:18:44.074Z,99.90
2022-08-07T23:21:30.177Z,99.90
2022-08-07T23:24:34.765Z,99.90
2022-08-07T23:27:33.261Z,99.90
2022-08-07T23:30:38.437Z,99.90
2022-08-07T23:34:34.365Z,99.90
2022-08-07T23:36:29.189Z,99.90
2022-08-07T23:39:08.656Z,99.90
2022-08-07T23:42:04.211Z,99.90
2022-08-07T23:44:55.754Z,99.90
2022-08-07T23:47:42.218Z,99.90
2022-08-07T23:50:30.265Z,99.90
2022-08-07T23:53:17.669Z,99.90
2022-08-07T23:55:55.576Z,99.90
2022-08-07T23:58:37.507Z,99.90
